sensor_id;sensor_type;location;lat;lon;timestamp;temperature;humidity
71754;DHT22;59593;51.716;7.016;2023-08-08T00:00:38;14.80;99.90
71754;DHT22;59593;51.716;7.016;2023-08-08T00:03:04;14.80;99.90
71754;DHT22;59593;51.716;7.016;2023-08-08T00:05:32;14.70;99.90
71754;DHT22;59593;51.716;7.016;2023-08-08T00:08:00;14.60;99.90
71754;DHT22;59593;51.716;7.016;2023-08-08T00:10:26;14.70;99.90
71754;DHT22;59593;51.716;7.016;2023-08-08T00:12:52;14.80;99.90
71754;DHT22;59593;51.716;7.016;2023-08-08T00:15:18;14.80;99.90
71754;DHT22;59593;51.716;7.016;2023-08-08T00:17:44;14.80;99.90
71754;DHT22;59593;51.716;7.016;2023-08-08T00:20:15;14.80;99.90
71754;DHT22;59593;51.716;7.016;2023-08-08T00:22:44;14.80;99.90
71754;DHT22;59593;51.716;7.016;2023-08-08T00:25:10;14.80;99.90
71754;DHT22;59593;51.716;7.016;2023-08-08T00:27:38;14.80;99.90
71754;DHT22;59593;51.716;7.016;2023-08-08T00:30:08;14.80;99.90
71754;DHT22;59593;51.716;7.016;2023-08-08T00:32:34;14.70;99.90
71754;DHT22;59593;51.716;7.016;2023-08-08T00:35:05;14.70;99.90
71754;DHT22;59593;51.716;7.016;2023-08-08T00:37:31;14.80;99.90
71754;DHT22;59593;51.716;7.016;2023-08-08T00:40:03;14.80;99.90
71754;DHT22;59593;51.716;7.016;2023-08-08T00:42:29;14.80;99.90
71754;DHT22;59593;51.716;7.016;2023-08-08T00:44:55;14.80;99.90
71754;DHT22;59593;51.716;7.016;2023-08-08T00:47:27;14.80;99.90
71754;DHT22;59593;51.716;7.016;2023-08-08T00:49:53;14.70;99.90
71754;DHT22;59593;51.716;7.016;2023-08-08T00:52:19;14.80;99.90
71754;DHT22;59593;51.716;7.016;2023-08-08T00:54:53;14.80;99.90
71754;DHT22;59593;51.716;7.016;2023-08-08T00:57:19;14.70;99.90
71754;DHT22;59593;51.716;7.016;2023-08-08T00:59:48;14.70;99.90
71754;DHT22;59593;51.716;7.016;2023-08-08T01:02:14;14.70;99.90
71754;DHT22;59593;51.716;7.016;2023-08-08T01:04:42;14.60;99.90
71754;DHT22;59593;51.716;7.016;2023-08-08T01:07:51;14.70;99.90
71754;DHT22;59593;51.716;7.016;2023-08-08T01:10:32;14.60;99.90
71754;DHT22;59593;51.716;7.016;2023-08-08T01:13:20;14.60;99.90
71754;DHT22;59593;51.716;7.016;2023-08-08T01:15:49;14.50;99.90
71754;DHT22;59593;51.716;7.016;2023-08-08T01:18:16;14.50;99.90
71754;DHT22;59593;51.716;7.016;2023-08-08T01:20:43;14.50;99.90
71754;DHT22;59593;51.716;7.016;2023-08-08T01:25:49;14.40;99.90
71754;DHT22;59593;51.716;7.016;2023-08-08T01:28:15;14.50;99.90
71754;DHT22;59593;51.716;7.016;2023-08-08T01:30:44;14.50;99.90
71754;DHT22;59593;51.716;7.016;2023-08-08T01:33:10;14.50;99.90
71754;DHT22;59593;51.716;7.016;2023-08-08T01:35:38;14.40;99.90
71754;DHT22;59593;51.716;7.016;2023-08-08T01:38:28;14.20;99.90
71754;DHT22;59593;51.716;7.016;2023-08-08T01:41:04;14.30;99.90
71754;DHT22;59593;51.716;7.016;2023-08-08T01:43:30;14.30;99.90
71754;DHT22;59593;51.716;7.016;2023-08-08T01:46:03;14.40;99.90
71754;DHT22;59593;51.716;7.016;2023-08-08T01:48:29;14.40;99.90
71754;DHT22;59593;51.716;7.016;2023-08-08T01:50:55;14.30;99.90
71754;DHT22;59593;51.716;7.016;2023-08-08T01:53:21;14.40;99.90
71754;DHT22;59593;51.716;7.016;2023-08-08T01:55:47;14.40;99.90
71754;DHT22;59593;51.716;7.016;2023-08-08T01:58:12;14.40;99.90
71754;DHT22;59593;51.716;7.016;2023-08-08T02:00:40;14.40;99.90
71754;DHT22;59593;51.716;7.016;2023-08-08T02:03:06;14.40;99.90
71754;DHT22;59593;51.716;7.016;2023-08-08T02:05:35;14.40;99.90
71754;DHT22;59593;51.716;7.016;2023-08-08T02:08:09;14.20;99.90
71754;DHT22;59593;51.716;7.016;2023-08-08T02:10:35;14.20;99.90
71754;DHT22;59593;51.716;7.016;2023-08-08T02:13:04;14.20;99.90
71754;DHT22;59593;51.716;7.016;2023-08-08T02:15:33;14.30;99.90
71754;DHT22;59593;51.716;7.016;2023-08-08T02:17:59;14.50;99.90
71754;DHT22;59593;51.716;7.016;2023-08-08T02:20:31;14.60;99.90
71754;DHT22;59593;51.716;7.016;2023-08-08T02:22:59;14.60;99.90
71754;DHT22;59593;51.716;7.016;2023-08-08T02:25:30;14.50;99.90
71754;DHT22;59593;51.716;7.016;2023-08-08T02:27:58;14.50;99.90
71754;DHT22;59593;51.716;7.016;2023-08-08T02:30:27;14.50;99.90
71754;DHT22;59593;51.716;7.016;2023-08-08T02:32:56;14.50;99.90
71754;DHT22;59593;51.716;7.016;2023-08-08T02:35:21;14.50;99.90
71754;DHT22;59593;51.716;7.016;2023-08-08T02:37:49;14.50;99.90
71754;DHT22;59593;51.716;7.016;2023-08-08T02:40:18;14.50;99.90
71754;DHT22;59593;51.716;7.016;2023-08-08T02:42:43;14.60;99.90
71754;DHT22;59593;51.716;7.016;2023-08-08T02:45:09;14.60;99.90
71754;DHT22;59593;51.716;7.016;2023-08-08T02:47:53;14.50;99.90
71754;DHT22;59593;51.716;7.016;2023-08-08T02:50:19;14.50;99.90
71754;DHT22;59593;51.716;7.016;2023-08-08T02:52:56;14.60;99.90
71754;DHT22;59593;51.716;7.016;2023-08-08T02:55:22;14.50;99.90
71754;DHT22;59593;51.716;7.016;2023-08-08T02:57:48;14.60;99.90
71754;DHT22;59593;51.716;7.016;2023-08-08T03:00:17;14.60;99.90
71754;DHT22;59593;51.716;7.016;2023-08-08T03:02:45;14.50;99.90
71754;DHT22;59593;51.716;7.016;2023-08-08T03:05:13;14.50;99.90
71754;DHT22;59593;51.716;7.016;2023-08-08T03:07:39;14.50;99.90
71754;DHT22;59593;51.716;7.016;2023-08-08T03:10:05;14.50;99.90
71754;DHT22;59593;51.716;7.016;2023-08-08T03:12:34;14.50;99.90
71754;DHT22;59593;51.716;7.016;2023-08-08T03:15:00;14.50;99.90
71754;DHT22;59593;51.716;7.016;2023-08-08T03:17:26;14.60;99.90
71754;DHT22;59593;51.716;7.016;2023-08-08T03:19:52;14.60;99.90
71754;DHT22;59593;51.716;7.016;2023-08-08T03:22:18;14.50;99.90
71754;DHT22;59593;51.716;7.016;2023-08-08T03:24:46;14.50;99.90
71754;DHT22;59593;51.716;7.016;2023-08-08T03:27:12;14.50;99.90
71754;DHT22;59593;51.716;7.016;2023-08-08T03:29:41;14.50;99.90
71754;DHT22;59593;51.716;7.016;2023-08-08T03:32:06;14.50;99.90
71754;DHT22;59593;51.716;7.016;2023-08-08T03:34:32;14.60;99.90
71754;DHT22;59593;51.716;7.016;2023-08-08T03:36:58;14.60;99.90
71754;DHT22;59593;51.716;7.016;2023-08-08T03:39:24;14.50;99.90
71754;DHT22;59593;51.716;7.016;2023-08-08T03:41:50;14.50;99.90
71754;DHT22;59593;51.716;7.016;2023-08-08T03:44:16;14.50;99.90
71754;DHT22;59593;51.716;7.016;2023-08-08T03:46:42;14.40;99.90
71754;DHT22;59593;51.716;7.016;2023-08-08T03:49:10;14.50;99.90
71754;DHT22;59593;51.716;7.016;2023-08-08T03:51:36;14.50;99.90
71754;DHT22;59593;51.716;7.016;2023-08-08T03:54:03;14.50;99.90
71754;DHT22;59593;51.716;7.016;2023-08-08T03:56:29;14.50;99.90
71754;DHT22;59593;51.716;7.016;2023-08-08T03:58:59;14.50;99.90
71754;DHT22;59593;51.716;7.016;2023-08-08T04:01:28;14.40;99.90
71754;DHT22;59593;51.716;7.016;2023-08-08T04:03:54;14.50;99.90
71754;DHT22;59593;51.716;7.016;2023-08-08T04:06:22;14.50;99.90
71754;DHT22;59593;51.716;7.016;2023-08-08T04:08:50;14.50;99.90
71754;DHT22;59593;51.716;7.016;2023-08-08T04:11:19;14.40;99.90
71754;DHT22;59593;51.716;7.016;2023-08-08T04:13:44;14.30;99.90
71754;DHT22;59593;51.716;7.016;2023-08-08T04:16:10;14.40;99.90
71754;DHT22;59593;51.716;7.016;2023-08-08T04:18:38;14.30;99.90
71754;DHT22;59593;51.716;7.016;2023-08-08T04:21:06;14.40;99.90
71754;DHT22;59593;51.716;7.016;2023-08-08T04:23:38;14.40;99.90
71754;DHT22;59593;51.716;7.016;2023-08-08T04:26:07;14.40;99.90
71754;DHT22;59593;51.716;7.016;2023-08-08T04:28:47;14.40;99.90
71754;DHT22;59593;51.716;7.016;2023-08-08T04:31:18;14.40;99.90
71754;DHT22;59593;51.716;7.016;2023-08-08T04:34:00;14.40;99.90
71754;DHT22;59593;51.716;7.016;2023-08-08T04:36:46;14.40;99.90
71754;DHT22;59593;51.716;7.016;2023-08-08T04:39:27;14.40;99.90
71754;DHT22;59593;51.716;7.016;2023-08-08T04:42:05;14.40;99.90
71754;DHT22;59593;51.716;7.016;2023-08-08T04:44:42;14.50;99.90
71754;DHT22;59593;51.716;7.016;2023-08-08T04:47:16;14.40;99.90
71754;DHT22;59593;51.716;7.016;2023-08-08T04:49:50;14.50;99.90
71754;DHT22;59593;51.716;7.016;2023-08-08T04:52:19;14.50;99.90
71754;DHT22;59593;51.716;7.016;2023-08-08T04:54:55;14.50;99.90
71754;DHT22;59593;51.716;7.016;2023-08-08T04:57:52;14.60;99.90
71754;DHT22;59593;51.716;7.016;2023-08-08T05:00:26;14.60;99.90
71754;DHT22;59593;51.716;7.016;2023-08-08T05:02:54;14.60;99.90
71754;DHT22;59593;51.716;7.016;2023-08-08T05:10:33;14.60;99.90
71754;DHT22;59593;51.716;7.016;2023-08-08T05:13:10;14.60;99.90
71754;DHT22;59593;51.716;7.016;2023-08-08T05:19:09;14.80;99.90
71754;DHT22;59593;51.716;7.016;2023-08-08T05:21:35;14.80;99.90
71754;DHT22;59593;51.716;7.016;2023-08-08T05:24:18;14.90;99.90
71754;DHT22;59593;51.716;7.016;2023-08-08T05:26:50;14.80;99.90
71754;DHT22;59593;51.716;7.016;2023-08-08T05:29:31;14.90;99.90
71754;DHT22;59593;51.716;7.016;2023-08-08T05:32:25;15.00;99.90
71754;DHT22;59593;51.716;7.016;2023-08-08T05:35:38;14.90;99.90
71754;DHT22;59593;51.716;7.016;2023-08-08T05:38:44;14.90;99.90
71754;DHT22;59593;51.716;7.016;2023-08-08T05:44:23;15.00;99.90
71754;DHT22;59593;51.716;7.016;2023-08-08T05:47:11;15.00;99.90
71754;DHT22;59593;51.716;7.016;2023-08-08T05:50:11;14.90;99.90
71754;DHT22;59593;51.716;7.016;2023-08-08T06:00:00;15.00;99.90
71754;DHT22;59593;51.716;7.016;2023-08-08T06:03:04;15.00;99.90
71754;DHT22;59593;51.716;7.016;2023-08-08T06:08:10;15.10;99.90
71754;DHT22;59593;51.716;7.016;2023-08-08T06:10:47;15.10;99.90
71754;DHT22;59593;51.716;7.016;2023-08-08T06:13:21;15.10;99.90
71754;DHT22;59593;51.716;7.016;2023-08-08T06:15:51;15.00;99.90
71754;DHT22;59593;51.716;7.016;2023-08-08T06:18:19;15.00;99.90
71754;DHT22;59593;51.716;7.016;2023-08-08T06:20:49;15.00;99.90
71754;DHT22;59593;51.716;7.016;2023-08-08T06:23:17;15.10;99.90
71754;DHT22;59593;51.716;7.016;2023-08-08T06:25:43;15.10;99.90
71754;DHT22;59593;51.716;7.016;2023-08-08T06:31:43;15.30;99.90
71754;DHT22;59593;51.716;7.016;2023-08-08T06:34:15;15.40;99.90
71754;DHT22;59593;51.716;7.016;2023-08-08T06:36:55;15.40;99.90
71754;DHT22;59593;51.716;7.016;2023-08-08T06:39:29;15.30;99.90
71754;DHT22;59593;51.716;7.016;2023-08-08T06:42:08;15.50;99.90
71754;DHT22;59593;51.716;7.016;2023-08-08T06:55:46;15.50;99.90
71754;DHT22;59593;51.716;7.016;2023-08-08T06:58:33;15.50;99.90
71754;DHT22;59593;51.716;7.016;2023-08-08T07:01:26;15.60;99.90
71754;DHT22;59593;51.716;7.016;2023-08-08T10:12:48;18.70;99.90
71754;DHT22;59593;51.716;7.016;2023-08-08T10:16:08;19.10;99.90
71754;DHT22;59593;51.716;7.016;2023-08-08T10:19:21;19.30;99.90
71754;DHT22;59593;51.716;7.016;2023-08-08T10:22:13;19.30;99.90
71754;DHT22;59593;51.716;7.016;2023-08-08T10:28:07;19.30;99.90
71754;DHT22;59593;51.716;7.016;2023-08-08T10:30:48;19.00;99.90
71754;DHT22;59593;51.716;7.016;2023-08-08T10:34:06;19.00;99.90
71754;DHT22;59593;51.716;7.016;2023-08-08T10:37:11;19.20;99.90
71754;DHT22;59593;51.716;7.016;2023-08-08T10:39:57;19.50;99.90
71754;DHT22;59593;51.716;7.016;2023-08-08T10:42:46;19.70;99.90
71754;DHT22;59593;51.716;7.016;2023-08-08T10:45:35;19.50;99.90
71754;DHT22;59593;51.716;7.016;2023-08-08T10:48:13;19.10;99.90
71754;DHT22;59593;51.716;7.016;2023-08-08T10:51:20;19.10;99.90
71754;DHT22;59593;51.716;7.016;2023-08-08T11:01:20;19.60;99.90
71754;DHT22;59593;51.716;7.016;2023-08-08T11:22:44;19.30;99.90
71754;DHT22;59593;51.716;7.016;2023-08-08T11:33:06;18.50;99.90
71754;DHT22;59593;51.716;7.016;2023-08-08T11:35:22;18.40;99.90
71754;DHT22;59593;51.716;7.016;2023-08-08T11:41:57;18.00;99.90
71754;DHT22;59593;51.716;7.016;2023-08-08T11:48:20;17.70;99.90
71754;DHT22;59593;51.716;7.016;2023-08-08T11:51:24;17.80;99.90
71754;DHT22;59593;51.716;7.016;2023-08-08T11:54:02;18.20;99.90
71754;DHT22;59593;51.716;7.016;2023-08-08T11:56:35;18.80;99.90
71754;DHT22;59593;51.716;7.016;2023-08-08T12:02:20;19.70;99.90
71754;DHT22;59593;51.716;7.016;2023-08-08T12:33:31;19.30;99.90
71754;DHT22;59593;51.716;7.016;2023-08-08T12:36:10;19.10;99.90
71754;DHT22;59593;51.716;7.016;2023-08-08T12:41:55;18.90;99.90
71754;DHT22;59593;51.716;7.016;2023-08-08T12:44:28;19.10;99.90
71754;DHT22;59593;51.716;7.016;2023-08-08T12:47:22;19.60;99.90
71754;DHT22;59593;51.716;7.016;2023-08-08T12:56:30;19.80;99.90
71754;DHT22;59593;51.716;7.016;2023-08-08T12:59:21;19.90;99.90
71754;DHT22;59593;51.716;7.016;2023-08-08T14:18:28;21.40;99.90
71754;DHT22;59593;51.716;7.016;2023-08-08T14:20:56;21.20;99.90
71754;DHT22;59593;51.716;7.016;2023-08-08T14:23:30;21.00;99.90
71754;DHT22;59593;51.716;7.016;2023-08-08T14:29:35;20.50;99.90
71754;DHT22;59593;51.716;7.016;2023-08-08T14:32:32;20.20;99.90
71754;DHT22;59593;51.716;7.016;2023-08-08T14:35:17;20.40;99.90
71754;DHT22;59593;51.716;7.016;2023-08-08T14:38:03;20.60;99.90
71754;DHT22;59593;51.716;7.016;2023-08-08T14:41:13;20.70;99.90
71754;DHT22;59593;51.716;7.016;2023-08-08T14:43:42;20.30;99.90
71754;DHT22;59593;51.716;7.016;2023-08-08T14:53:13;20.20;99.90
71754;DHT22;59593;51.716;7.016;2023-08-08T15:02:52;20.20;99.90
71754;DHT22;59593;51.716;7.016;2023-08-08T15:44:37;21.40;99.90
71754;DHT22;59593;51.716;7.016;2023-08-08T15:47:05;21.30;99.90
71754;DHT22;59593;51.716;7.016;2023-08-08T15:49:37;21.40;99.90
71754;DHT22;59593;51.716;7.016;2023-08-08T15:52:12;21.20;99.90
71754;DHT22;59593;51.716;7.016;2023-08-08T15:58:28;21.30;99.90
71754;DHT22;59593;51.716;7.016;2023-08-08T16:01:45;21.00;99.90
71754;DHT22;59593;51.716;7.016;2023-08-08T16:07:18;20.10;99.90
71754;DHT22;59593;51.716;7.016;2023-08-08T16:10:00;20.10;99.90
71754;DHT22;59593;51.716;7.016;2023-08-08T16:12:52;20.20;99.90
71754;DHT22;59593;51.716;7.016;2023-08-08T16:15:31;20.00;99.90
71754;DHT22;59593;51.716;7.016;2023-08-08T16:18:11;20.20;99.90
71754;DHT22;59593;51.716;7.016;2023-08-08T16:21:00;20.20;99.90
71754;DHT22;59593;51.716;7.016;2023-08-08T16:24:07;20.30;99.90
71754;DHT22;59593;51.716;7.016;2023-08-08T16:27:22;20.60;99.90
71754;DHT22;59593;51.716;7.016;2023-08-08T16:33:12;20.50;99.90
71754;DHT22;59593;51.716;7.016;2023-08-08T16:43:40;20.10;99.90
71754;DHT22;59593;51.716;7.016;2023-08-08T16:46:57;20.20;99.90
71754;DHT22;59593;51.716;7.016;2023-08-08T16:52:44;20.30;99.90
71754;DHT22;59593;51.716;7.016;2023-08-08T17:12:34;19.70;99.90
71754;DHT22;59593;51.716;7.016;2023-08-08T17:15:12;19.60;99.90
71754;DHT22;59593;51.716;7.016;2023-08-08T17:18:19;19.50;99.90
71754;DHT22;59593;51.716;7.016;2023-08-08T17:21:11;19.40;99.90
71754;DHT22;59593;51.716;7.016;2023-08-08T17:23:37;19.40;99.90
71754;DHT22;59593;51.716;7.016;2023-08-08T18:14:42;18.90;99.90
71754;DHT22;59593;51.716;7.016;2023-08-08T18:17:26;18.80;99.90
71754;DHT22;59593;51.716;7.016;2023-08-08T18:20:00;18.70;99.90
71754;DHT22;59593;51.716;7.016;2023-08-08T18:22:55;18.60;99.90
71754;DHT22;59593;51.716;7.016;2023-08-08T18:25:56;18.60;99.90
71754;DHT22;59593;51.716;7.016;2023-08-08T18:31:39;18.50;99.90
71754;DHT22;59593;51.716;7.016;2023-08-08T18:37:34;18.40;99.90
71754;DHT22;59593;51.716;7.016;2023-08-08T18:43:50;18.30;99.90
71754;DHT22;59593;51.716;7.016;2023-08-08T18:46:26;18.30;99.90
71754;DHT22;59593;51.716;7.016;2023-08-08T18:52:41;18.10;99.90
71754;DHT22;59593;51.716;7.016;2023-08-08T18:59:09;18.00;99.90
71754;DHT22;59593;51.716;7.016;2023-08-08T19:01:57;17.90;99.90
71754;DHT22;59593;51.716;7.016;2023-08-08T19:53:54;17.00;99.90
71754;DHT22;59593;51.716;7.016;2023-08-08T19:57:23;16.90;99.90
71754;DHT22;59593;51.716;7.016;2023-08-08T19:59:53;16.70;99.90
71754;DHT22;59593;51.716;7.016;2023-08-08T20:02:33;16.60;99.90
71754;DHT22;59593;51.716;7.016;2023-08-08T21:14:56;14.80;99.90
71754;DHT22;59593;51.716;7.016;2023-08-08T21:17:22;14.70;99.90
71754;DHT22;59593;51.716;7.016;2023-08-08T21:19:50;14.70;99.90
71754;DHT22;59593;51.716;7.016;2023-08-08T21:22:32;14.70;99.90
71754;DHT22;59593;51.716;7.016;2023-08-08T21:25:04;14.60;99.90
71754;DHT22;59593;51.716;7.016;2023-08-08T21:27:30;14.60;99.90
71754;DHT22;59593;51.716;7.016;2023-08-08T21:30:04;14.60;99.90
71754;DHT22;59593;51.716;7.016;2023-08-08T21:32:35;14.60;99.90
71754;DHT22;59593;51.716;7.016;2023-08-08T21:35:25;14.50;99.90
71754;DHT22;59593;51.716;7.016;2023-08-08T21:37:53;14.60;99.90
71754;DHT22;59593;51.716;7.016;2023-08-08T21:40:23;14.60;99.90
71754;DHT22;59593;51.716;7.016;2023-08-08T21:42:58;14.40;99.90
71754;DHT22;59593;51.716;7.016;2023-08-08T21:45:28;14.50;99.90
71754;DHT22;59593;51.716;7.016;2023-08-08T21:47:54;14.60;99.90
71754;DHT22;59593;51.716;7.016;2023-08-08T21:50:20;14.60;99.90
71754;DHT22;59593;51.716;7.016;2023-08-08T21:52:49;14.70;99.90
71754;DHT22;59593;51.716;7.016;2023-08-08T21:55:20;14.70;99.90
71754;DHT22;59593;51.716;7.016;2023-08-08T21:57:47;14.70;99.90
71754;DHT22;59593;51.716;7.016;2023-08-08T22:00:34;14.50;99.90
71754;DHT22;59593;51.716;7.016;2023-08-08T22:03:00;14.50;99.90
